Sandra J Banta — WDF3432 — position and weather

sailwx.info

Track history (hours):
 
Tides and Currents Weather Stations Pressure Air Temp Water Temp Dewpoint Dewpoint Depression Visibility Wind Speed Wind Dir Waves Ship Positions

Sandra J Banta

Owner: Chem Carriers Towing, LLC, Sunshine, LA. More information available from US FCC via Universal Licensing System and Coast Guard Vessel Documentation Center.

Last reported at 2017-Nov-18 16:46 UTC. Time now 2017-Nov-19 05:11 UTC.
Position N 29°43' W 095°15'.

MMSI: 367439810.

Date/timePositionNaut miles runAvg speedWind from/ knotsBaromVisibWave heightAir tempDewpointWater temp
2017-Nov-18 16:46N 29°43' W 095°15'3 6.6
2017-Nov-18 16:17N 29°45' W 095°11'2 6.7
2017-Nov-18 15:59N 29°44' W 095°09'3 6.7
2017-Nov-18 15:30N 29°45' W 095°06'1 1.9
2017-Nov-18 15:00N 29°46' W 095°06'0 0.0
2017-Nov-18 13:01N 29°46' W 095°06'0 0.4
2017-Nov-18 13:00N 29°46' W 095°06'1 2.6
2017-Nov-18 12:30N 29°46' W 095°05'3 6.7
2017-Nov-18 12:00N 29°44' W 095°02'3 5.0
2017-Nov-18 11:30N 29°42' W 094°60'2 4.8
2017-Nov-18 11:00N 29°41' W 094°57'2 3.2
2017-Nov-18 10:28N 29°42' W 094°55'1 2.2
2017-Nov-18 09:54N 29°43' W 094°56'1 2.9
2017-Nov-18 09:30N 29°44' W 094°56'2 4.3
2017-Nov-18 09:00N 29°46' W 094°55'0 0.0
2017-Nov-18 04:07N 29°46' W 094°55'1 0.6
2017-Nov-18 02:15N 29°45' W 094°56'2 4.4
2017-Nov-18 01:48N 29°43' W 094°57'1 2.2
2017-Nov-18 01:30N 29°43' W 094°56'1 2.3
2017-Nov-18 01:00N 29°42' W 094°55'2 3.6
2017-Nov-18 00:29N 29°41' W 094°57'2 5.1
2017-Nov-18 00:00N 29°41' W 094°59'4 6.2
2017-Nov-17 23:21N 29°44' W 095°03'2 6.0
2017-Nov-17 23:00N 29°46' W 095°04'2 0.9
2017-Nov-17 21:10N 29°46' W 095°06'0 0.1
2017-Nov-17 19:03N 29°46' W 095°06'0 0.2
2017-Nov-17 18:53N 29°46' W 095°06'0 0.1
2017-Nov-17 15:42N 29°46' W 095°06'1 3.0
2017-Nov-17 15:30N 29°47' W 095°06'1 0.4
2017-Nov-17 13:52N 29°46' W 095°06'1 1.1
2017-Nov-17 13:15N 29°47' W 095°06'0 0.0
2017-Nov-17 13:00N 29°47' W 095°06'0 0.0
2017-Nov-17 12:30N 29°47' W 095°06'0 0.0
2017-Nov-17 12:00N 29°47' W 095°06'0 0.0
2017-Nov-17 11:30N 29°47' W 095°06'0 0.0
2017-Nov-17 11:00N 29°47' W 095°06'0 0.0
2017-Nov-17 10:30N 29°47' W 095°06'0 0.0
2017-Nov-17 10:00N 29°47' W 095°06'0 0.0
2017-Nov-17 09:30N 29°47' W 095°06'0 0.0
2017-Nov-17 09:00N 29°47' W 095°06'0 0.0
2017-Nov-17 08:30N 29°47' W 095°06'0 0.0
2017-Nov-17 08:00N 29°47' W 095°06'0 0.0
2017-Nov-17 07:30N 29°47' W 095°06'0 0.0
2017-Nov-17 07:00N 29°47' W 095°06'0 0.0
2017-Nov-17 06:30N 29°47' W 095°06'0 0.0
2017-Nov-17 05:59N 29°47' W 095°06'0 0.0
2017-Nov-17 05:30N 29°47' W 095°06'0 0.0
2017-Nov-17 05:00N 29°47' W 095°06'0 0.0
2017-Nov-17 04:30N 29°47' W 095°06'0 0.0
2017-Nov-17 04:00N 29°47' W 095°06'0 0.0
2017-Nov-17 03:30N 29°47' W 095°06'1 0.4
2017-Nov-17 02:06N 29°46' W 095°06'0 0.0
2017-Nov-17 01:54N 29°46' W 095°06'0 0.1
2017-Nov-17 01:14N 29°46' W 095°06'0 1.5
2017-Nov-17 00:55N 29°47' W 095°06'1 1.0
2017-Nov-17 00:12N 29°46' W 095°06'1 0.6
2017-Nov-16 22:33N 29°45' W 095°06'1 8.2
2017-Nov-16 22:28N 29°46' W 095°05'1 1.2
2017-Nov-16 21:47N 29°46' W 095°06'2 5.0
2017-Nov-16 21:24N 29°44' W 095°07'4 7.3
2017-Nov-16 20:53N 29°45' W 095°11'1 1.5
2017-Nov-16 19:59N 29°44' W 095°12'1 2.0
2017-Nov-16 19:30N 29°45' W 095°12'4 7.6
2017-Nov-16 18:58N 29°44' W 095°07'1 2.2
2017-Nov-16 18:18N 29°45' W 095°06'1 2.1
2017-Nov-16 17:48N 29°46' W 095°06'0 0.0
2017-Nov-16 16:21N 29°46' W 095°06'0 0.0
2017-Nov-16 14:51N 29°46' W 095°06'0 0.1
2017-Nov-16 13:03N 29°46' W 095°06'1 2.0
2017-Nov-16 12:46N 29°46' W 095°06'1 0.6
2017-Nov-16 10:33N 29°45' W 095°06'0 0.0
2017-Nov-16 10:30N 29°45' W 095°06'1 2.4
2017-Nov-16 10:00N 29°46' W 095°05'1 0.2
2017-Nov-16 05:00N 29°46' W 095°06'1 1.2
2017-Nov-16 04:29N 29°46' W 095°05'3 7.2
2017-Nov-16 04:00N 29°44' W 095°09'4 7.7
2017-Nov-16 03:30N 29°43' W 095°13'2 4.5
2017-Nov-16 03:00N 29°43' W 095°16'0 0.0
2017-Nov-16 02:30N 29°43' W 095°16'0 0.0
2017-Nov-16 02:00N 29°43' W 095°16'0 0.0
2017-Nov-16 01:30N 29°43' W 095°16'0 0.0
2017-Nov-16 01:00N 29°43' W 095°16'0 0.0
2017-Nov-16 00:30N 29°43' W 095°16'0 0.0
2017-Nov-15 23:59N 29°43' W 095°16'0 0.0
2017-Nov-15 23:30N 29°43' W 095°16'0 0.0
2017-Nov-15 23:00N 29°43' W 095°16'0 0.0
2017-Nov-15 22:30N 29°43' W 095°16'0 0.0
2017-Nov-15 22:00N 29°43' W 095°16'0 0.0
2017-Nov-15 21:30N 29°43' W 095°16'0 0.0
2017-Nov-15 21:00N 29°43' W 095°16'0 0.0
2017-Nov-15 20:30N 29°43' W 095°16'0 0.0
2017-Nov-15 20:00N 29°43' W 095°16'0 0.0
2017-Nov-15 19:30N 29°43' W 095°16'0 0.0
2017-Nov-15 19:00N 29°43' W 095°16'0 0.0
2017-Nov-15 18:30N 29°43' W 095°16'0 0.6
2017-Nov-15 18:00N 29°44' W 095°16'3 5.3
2017-Nov-15 17:23N 29°44' W 095°12'2 6.3
2017-Nov-15 17:00N 29°44' W 095°09'3 6.4
2017-Nov-15 16:29N 29°45' W 095°06'1 2.2
2017-Nov-15 16:00N 29°46' W 095°06'0 0.1
2017-Nov-15 07:14N 29°46' W 095°06'1 2.5
2017-Nov-15 07:00N 29°45' W 095°06'4 7.5
2017-Nov-15 06:30N 29°45' W 095°10'2 3.2
2017-Nov-15 06:00N 29°46' W 095°11'2 3.2
2017-Nov-15 05:30N 29°45' W 095°10'3 6.6
2017-Nov-15 04:58N 29°45' W 095°06'1 2.2
2017-Nov-15 04:30N 29°46' W 095°06'1 2.7
2017-Nov-15 04:00N 29°46' W 095°05'2 4.9
2017-Nov-15 03:30N 29°44' W 095°03'2 4.3
2017-Nov-15 03:00N 29°42' W 095°01'2 4.8
2017-Nov-15 02:30N 29°41' W 094°59'1 2.8
2017-Nov-15 02:00N 29°41' W 094°57'1 2.5
2017-Nov-15 01:30N 29°40' W 094°56'1 2.9
2017-Nov-15 01:00N 29°42' W 094°55'1 1.2
2017-Nov-15 00:28N 29°42' W 094°56'1 1.7
2017-Nov-15 00:00N 29°43' W 094°56'1 1.5
2017-Nov-14 23:30N 29°43' W 094°57'0 0.9
2017-Nov-14 23:00N 29°44' W 094°56'1 2.8
2017-Nov-14 22:30N 29°45' W 094°56'1 0.9
2017-Nov-14 21:40N 29°46' W 094°55'0 0.0
2017-Nov-14 20:02N 29°46' W 094°55'0 0.0
2017-Nov-14 18:28N 29°46' W 094°55'0 0.1
2017-Nov-14 17:55N 29°46' W 094°55'0 0.1
2017-Nov-14 17:21N 29°46' W 094°55'0 0.0
2017-Nov-14 16:48N 29°46' W 094°55'0 0.0
2017-Nov-14 16:18N 29°46' W 094°55'0 0.0
2017-Nov-14 15:52N 29°46' W 094°55'1 2.7
2017-Nov-14 15:28N 29°45' W 094°56'2 4.5
2017-Nov-14 15:00N 29°43' W 094°57'1 2.6
2017-Nov-14 14:30N 29°42' W 094°55'2 2.8
2017-Nov-14 13:55N 29°40' W 094°56'2 5.4
2017-Nov-14 13:30N 29°41' W 094°59'3 6.3
2017-Nov-14 13:00N 29°43' W 095°01'5 6.8
2017-Nov-14 12:17N 29°46' W 095°06'0 0.0
2017-Nov-14 04:49N 29°46' W 095°06'0 1.0
2017-Nov-14 04:26N 29°47' W 095°06'0 0.2
2017-Nov-14 03:53N 29°47' W 095°06'0 0.1
2017-Nov-14 03:24N 29°47' W 095°06'0 0.0
2017-Nov-14 02:55N 29°47' W 095°06'1 0.4
2017-Nov-14 01:28N 29°46' W 095°06'2 4.8
2017-Nov-14 00:58N 29°44' W 095°07'3 6.5
2017-Nov-14 00:30N 29°45' W 095°11'0 0.9
2017-Nov-14 00:00N 29°46' W 095°11'1 2.2
2017-Nov-13 23:30N 29°45' W 095°10'2 4.4
2017-Nov-13 22:57N 29°44' W 095°07'2 4.3
2017-Nov-13 22:26N 29°46' W 095°06'0 0.2
2017-Nov-13 21:59N 29°46' W 095°06'1 0.1
2017-Nov-13 02:01N 29°45' W 095°06'2 3.0
2017-Nov-13 01:27N 29°47' W 095°06'1 3.0
2017-Nov-13 01:00N 29°45' W 095°06'4 7.2
2017-Nov-13 00:30N 29°44' W 095°10'3 6.8
2017-Nov-13 00:01N 29°43' W 095°13'2 4.3
2017-Nov-12 23:30N 29°44' W 095°16'0 0.0
2017-Nov-12 23:00N 29°44' W 095°16'0 0.0
2017-Nov-12 22:30N 29°44' W 095°16'0 0.0
2017-Nov-12 22:00N 29°44' W 095°16'0 0.0
2017-Nov-12 21:30N 29°44' W 095°16'0 0.0
2017-Nov-12 21:01N 29°44' W 095°16'0 0.0
2017-Nov-12 20:30N 29°44' W 095°16'0 0.0
2017-Nov-12 20:00N 29°44' W 095°16'0 0.0
2017-Nov-12 19:30N 29°44' W 095°16'0 0.0
2017-Nov-12 19:01N 29°44' W 095°16'0 0.0
2017-Nov-12 18:31N 29°44' W 095°16'1 2.9
2017-Nov-12 18:00N 29°43' W 095°14'3 6.8
2017-Nov-12 17:30N 29°45' W 095°11'4 6.9
2017-Nov-12 16:59N 29°45' W 095°06'2 3.1
2017-Nov-12 16:26N 29°46' W 095°06'0 0.1
2017-Nov-12 16:00N 29°46' W 095°06'1 0.1
2017-Nov-12 03:45N 29°47' W 095°06'1 1.0
2017-Nov-12 03:07N 29°46' W 095°06'0 0.5
2017-Nov-12 02:47N 29°46' W 095°06'0 0.4
2017-Nov-12 02:29N 29°46' W 095°06'2 3.2
2017-Nov-12 02:01N 29°46' W 095°04'2 4.9
2017-Nov-12 01:30N 29°44' W 095°02'2 3.7
2017-Nov-12 01:00N 29°42' W 095°01'2 4.8
2017-Nov-12 00:31N 29°41' W 094°59'1 2.8
2017-Nov-12 00:00N 29°41' W 094°57'1 2.5
2017-Nov-11 23:30N 29°41' W 094°56'1 2.7
2017-Nov-11 23:00N 29°42' W 094°55'1 1.2
2017-Nov-11 22:31N 29°42' W 094°56'1 1.9
2017-Nov-11 21:55N 29°43' W 094°57'1 2.8
2017-Nov-11 21:31N 29°44' W 094°56'1 2.8
2017-Nov-11 21:00N 29°45' W 094°56'0 0.1
2017-Nov-11 12:00N 29°45' W 094°56'2 4.2
2017-Nov-11 11:29N 29°43' W 094°56'1 2.9
2017-Nov-11 10:59N 29°41' W 094°55'2 4.6
2017-Nov-11 10:31N 29°41' W 094°58'3 6.8
2017-Nov-11 10:01N 29°43' W 095°01'4 7.6
2017-Nov-11 09:30N 29°45' W 095°04'2 3.9
2017-Nov-11 09:00N 29°47' W 095°06'1 0.1
2017-Nov-10 20:37N 29°46' W 095°06'1 4.4
2017-Nov-10 20:30N 29°46' W 095°05'3 5.0
2017-Nov-10 19:55N 29°44' W 095°08'3 8.0
2017-Nov-10 19:30N 29°45' W 095°12'4 0.6
2017-Nov-10 12:41N 29°43' W 095°16'0 0.0
2017-Nov-10 12:29N 29°43' W 095°16'0 0.0
2017-Nov-10 12:00N 29°43' W 095°16'0 0.0
2017-Nov-10 11:30N 29°43' W 095°16'0 0.0
2017-Nov-10 10:58N 29°43' W 095°16'0 0.0
2017-Nov-10 10:30N 29°43' W 095°16'0 0.0
2017-Nov-10 10:00N 29°43' W 095°16'0 0.0
2017-Nov-10 09:30N 29°43' W 095°16'0 0.0
2017-Nov-10 09:00N 29°43' W 095°16'0 0.0
2017-Nov-10 08:30N 29°43' W 095°16'0 0.0
2017-Nov-10 08:00N 29°43' W 095°16'0 0.0
2017-Nov-10 07:30N 29°43' W 095°16'0 0.0
2017-Nov-10 07:00N 29°43' W 095°16'1 1.3
2017-Nov-10 06:30N 29°43' W 095°15'3 6.3
2017-Nov-10 06:00N 29°45' W 095°12'4 7.1
2017-Nov-10 05:30N 29°44' W 095°08'2 4.3
2017-Nov-10 04:57N 29°46' W 095°06'1 0.2
2017-Nov-10 01:31N 29°47' W 095°06'0 0.1
2017-Nov-10 01:21N 29°47' W 095°06'0 0.2
2017-Nov-10 00:31N 29°47' W 095°06'1 2.4
2017-Nov-10 00:16N 29°46' W 095°06'1 0.8
2017-Nov-09 23:28N 29°46' W 095°05'3 6.8
2017-Nov-09 23:01N 29°44' W 095°08'4 6.7
2017-Nov-09 22:22N 29°43' W 095°13'2 6.8
2017-Nov-09 22:00N 29°43' W 095°16'0 0.0
2017-Nov-09 21:30N 29°43' W 095°16'0 0.0
2017-Nov-09 21:00N 29°43' W 095°16'0 0.0
2017-Nov-09 20:30N 29°43' W 095°16'0 0.0
2017-Nov-09 20:00N 29°43' W 095°16'0 0.0
2017-Nov-09 19:31N 29°43' W 095°16'0 0.0
2017-Nov-09 18:51N 29°43' W 095°16'0 0.0
2017-Nov-09 17:35N 29°43' W 095°16'0 0.1
2017-Nov-09 17:31N 29°43' W 095°16'0 0.0
2017-Nov-09 16:59N 29°43' W 095°16'0 0.0
2017-Nov-09 16:30N 29°43' W 095°16'0 0.0
2017-Nov-09 15:59N 29°43' W 095°16'0 0.0
2017-Nov-09 15:30N 29°43' W 095°16'0 0.0
2017-Nov-09 15:00N 29°43' W 095°16'0 0.0
2017-Nov-09 14:27N 29°43' W 095°16'0 0.0
2017-Nov-09 13:57N 29°43' W 095°16'0 0.0
2017-Nov-09 13:30N 29°43' W 095°16'0 0.0
2017-Nov-09 13:01N 29°43' W 095°16'0 0.0
2017-Nov-09 12:30N 29°43' W 095°16'0 0.0
2017-Nov-09 12:00N 29°43' W 095°16'0 0.1
2017-Nov-09 11:30N 29°44' W 095°16'0 0.1
2017-Nov-09 11:00N 29°43' W 095°16'0 0.1
2017-Nov-09 10:29N 29°44' W 095°16'3 6.1
2017-Nov-09 10:00N 29°44' W 095°13'3 6.2
2017-Nov-09 09:30N 29°44' W 095°09'3 6.7
2017-Nov-09 09:00N 29°46' W 095°05'1 1.4
2017-Nov-09 08:29N 29°46' W 095°06'0 0.0
2017-Nov-09 07:59N 29°46' W 095°06'1 0.1
2017-Nov-09 01:38N 29°46' W 095°05'1 6.4
2017-Nov-09 01:30N 29°46' W 095°04'3 6.6
2017-Nov-09 01:01N 29°44' W 095°02'3 6.1
2017-Nov-09 00:31N 29°41' W 094°59'2 3.6
2017-Nov-09 00:01N 29°41' W 094°57'2 3.2
2017-Nov-08 23:30N 29°41' W 094°55'1 2.0
2017-Nov-08 22:58N 29°42' W 094°56'1 2.5
2017-Nov-08 22:26N 29°43' W 094°57'2 4.2
2017-Nov-08 22:00N 29°45' W 094°56'1 1.3
2017-Nov-08 21:15N 29°45' W 094°55'1 4.2
2017-Nov-08 21:01N 29°45' W 094°56'2 3.4
2017-Nov-08 20:30N 29°43' W 094°56'1 2.6
2017-Nov-08 20:00N 29°42' W 094°55'2 3.8
2017-Nov-08 19:31N 29°41' W 094°57'2 4.6
2017-Nov-08 19:01N 29°41' W 094°59'4 8.1
2017-Nov-08 18:28N 29°44' W 095°03'3 6.9
2017-Nov-08 18:01N 29°46' W 095°06'  
Track history (hours):
 
Tides and Currents Weather Stations Pressure Air Temp Water Temp Dewpoint Dewpoint Depression Visibility Wind Speed Wind Dir Waves Ship Positions

Sandra J Banta

Owner: Chem Carriers Towing, LLC, Sunshine, LA. More information available from US FCC via Universal Licensing System and Coast Guard Vessel Documentation Center.

Last reported at 2017-Nov-18 16:46 UTC. Time now 2017-Nov-19 05:11 UTC.
Position N 29°43' W 095°15'.

MMSI: 367439810.

Date/timePositionNaut miles runAvg speedWind from/ knotsBaromVisibWave heightAir tempDewpointWater temp
2017-Nov-18 16:46N 29°43' W 095°15'3 6.6
2017-Nov-18 16:17N 29°45' W 095°11'2 6.7
2017-Nov-18 15:59N 29°44' W 095°09'3 6.7
2017-Nov-18 15:30N 29°45' W 095°06'1 1.9
2017-Nov-18 15:00N 29°46' W 095°06'0 0.0
2017-Nov-18 13:01N 29°46' W 095°06'0 0.4
2017-Nov-18 13:00N 29°46' W 095°06'1 2.6
2017-Nov-18 12:30N 29°46' W 095°05'3 6.7
2017-Nov-18 12:00N 29°44' W 095°02'3 5.0
2017-Nov-18 11:30N 29°42' W 094°60'2 4.8
2017-Nov-18 11:00N 29°41' W 094°57'2 3.2
2017-Nov-18 10:28N 29°42' W 094°55'1 2.2
2017-Nov-18 09:54N 29°43' W 094°56'1 2.9
2017-Nov-18 09:30N 29°44' W 094°56'2 4.3
2017-Nov-18 09:00N 29°46' W 094°55'0 0.0
2017-Nov-18 04:07N 29°46' W 094°55'1 0.6
2017-Nov-18 02:15N 29°45' W 094°56'2 4.4
2017-Nov-18 01:48N 29°43' W 094°57'1 2.2
2017-Nov-18 01:30N 29°43' W 094°56'1 2.3
2017-Nov-18 01:00N 29°42' W 094°55'2 3.6
2017-Nov-18 00:29N 29°41' W 094°57'2 5.1
2017-Nov-18 00:00N 29°41' W 094°59'4 6.2
2017-Nov-17 23:21N 29°44' W 095°03'2 6.0
2017-Nov-17 23:00N 29°46' W 095°04'2 0.9
2017-Nov-17 21:10N 29°46' W 095°06'0 0.1
2017-Nov-17 19:03N 29°46' W 095°06'0 0.2
2017-Nov-17 18:53N 29°46' W 095°06'0 0.1
2017-Nov-17 15:42N 29°46' W 095°06'1 3.0
2017-Nov-17 15:30N 29°47' W 095°06'1 0.4
2017-Nov-17 13:52N 29°46' W 095°06'1 1.1
2017-Nov-17 13:15N 29°47' W 095°06'0 0.0
2017-Nov-17 13:00N 29°47' W 095°06'0 0.0
2017-Nov-17 12:30N 29°47' W 095°06'0 0.0
2017-Nov-17 12:00N 29°47' W 095°06'0 0.0
2017-Nov-17 11:30N 29°47' W 095°06'0 0.0
2017-Nov-17 11:00N 29°47' W 095°06'0 0.0
2017-Nov-17 10:30N 29°47' W 095°06'0 0.0
2017-Nov-17 10:00N 29°47' W 095°06'0 0.0
2017-Nov-17 09:30N 29°47' W 095°06'0 0.0
2017-Nov-17 09:00N 29°47' W 095°06'0 0.0
2017-Nov-17 08:30N 29°47' W 095°06'0 0.0
2017-Nov-17 08:00N 29°47' W 095°06'0 0.0
2017-Nov-17 07:30N 29°47' W 095°06'0 0.0
2017-Nov-17 07:00N 29°47' W 095°06'0 0.0
2017-Nov-17 06:30N 29°47' W 095°06'0 0.0
2017-Nov-17 05:59N 29°47' W 095°06'0 0.0
2017-Nov-17 05:30N 29°47' W 095°06'0 0.0
2017-Nov-17 05:00N 29°47' W 095°06'0 0.0
2017-Nov-17 04:30N 29°47' W 095°06'0 0.0
2017-Nov-17 04:00N 29°47' W 095°06'0 0.0
2017-Nov-17 03:30N 29°47' W 095°06'1 0.4
2017-Nov-17 02:06N 29°46' W 095°06'0 0.0
2017-Nov-17 01:54N 29°46' W 095°06'0 0.1
2017-Nov-17 01:14N 29°46' W 095°06'0 1.5
2017-Nov-17 00:55N 29°47' W 095°06'1 1.0
2017-Nov-17 00:12N 29°46' W 095°06'1 0.6
2017-Nov-16 22:33N 29°45' W 095°06'1 8.2
2017-Nov-16 22:28N 29°46' W 095°05'1 1.2
2017-Nov-16 21:47N 29°46' W 095°06'2 5.0
2017-Nov-16 21:24N 29°44' W 095°07'4 7.3
2017-Nov-16 20:53N 29°45' W 095°11'1 1.5
2017-Nov-16 19:59N 29°44' W 095°12'1 2.0
2017-Nov-16 19:30N 29°45' W 095°12'4 7.6
2017-Nov-16 18:58N 29°44' W 095°07'1 2.2
2017-Nov-16 18:18N 29°45' W 095°06'1 2.1
2017-Nov-16 17:48N 29°46' W 095°06'0 0.0
2017-Nov-16 16:21N 29°46' W 095°06'0 0.0
2017-Nov-16 14:51N 29°46' W 095°06'0 0.1
2017-Nov-16 13:03N 29°46' W 095°06'1 2.0
2017-Nov-16 12:46N 29°46' W 095°06'1 0.6
2017-Nov-16 10:33N 29°45' W 095°06'0 0.0
2017-Nov-16 10:30N 29°45' W 095°06'1 2.4
2017-Nov-16 10:00N 29°46' W 095°05'1 0.2
2017-Nov-16 05:00N 29°46' W 095°06'1 1.2
2017-Nov-16 04:29N 29°46' W 095°05'3 7.2
2017-Nov-16 04:00N 29°44' W 095°09'4 7.7
2017-Nov-16 03:30N 29°43' W 095°13'2 4.5
2017-Nov-16 03:00N 29°43' W 095°16'0 0.0
2017-Nov-16 02:30N 29°43' W 095°16'0 0.0
2017-Nov-16 02:00N 29°43' W 095°16'0 0.0
2017-Nov-16 01:30N 29°43' W 095°16'0 0.0
2017-Nov-16 01:00N 29°43' W 095°16'0 0.0
2017-Nov-16 00:30N 29°43' W 095°16'0 0.0
2017-Nov-15 23:59N 29°43' W 095°16'0 0.0
2017-Nov-15 23:30N 29°43' W 095°16'0 0.0
2017-Nov-15 23:00N 29°43' W 095°16'0 0.0
2017-Nov-15 22:30N 29°43' W 095°16'0 0.0
2017-Nov-15 22:00N 29°43' W 095°16'0 0.0
2017-Nov-15 21:30N 29°43' W 095°16'0 0.0
2017-Nov-15 21:00N 29°43' W 095°16'0 0.0
2017-Nov-15 20:30N 29°43' W 095°16'0 0.0
2017-Nov-15 20:00N 29°43' W 095°16'0 0.0
2017-Nov-15 19:30N 29°43' W 095°16'0 0.0
2017-Nov-15 19:00N 29°43' W 095°16'0 0.0
2017-Nov-15 18:30N 29°43' W 095°16'0 0.6
2017-Nov-15 18:00N 29°44' W 095°16'3 5.3
2017-Nov-15 17:23N 29°44' W 095°12'2 6.3
2017-Nov-15 17:00N 29°44' W 095°09'3 6.4
2017-Nov-15 16:29N 29°45' W 095°06'1 2.2
2017-Nov-15 16:00N 29°46' W 095°06'0 0.1
2017-Nov-15 07:14N 29°46' W 095°06'1 2.5
2017-Nov-15 07:00N 29°45' W 095°06'4 7.5
2017-Nov-15 06:30N 29°45' W 095°10'2 3.2
2017-Nov-15 06:00N 29°46' W 095°11'2 3.2
2017-Nov-15 05:30N 29°45' W 095°10'3 6.6
2017-Nov-15 04:58N 29°45' W 095°06'1 2.2
2017-Nov-15 04:30N 29°46' W 095°06'1 2.7
2017-Nov-15 04:00N 29°46' W 095°05'2 4.9
2017-Nov-15 03:30N 29°44' W 095°03'2 4.3
2017-Nov-15 03:00N 29°42' W 095°01'2 4.8
2017-Nov-15 02:30N 29°41' W 094°59'1 2.8
2017-Nov-15 02:00N 29°41' W 094°57'1 2.5
2017-Nov-15 01:30N 29°40' W 094°56'1 2.9
2017-Nov-15 01:00N 29°42' W 094°55'1 1.2
2017-Nov-15 00:28N 29°42' W 094°56'1 1.7
2017-Nov-15 00:00N 29°43' W 094°56'1 1.5
2017-Nov-14 23:30N 29°43' W 094°57'0 0.9
2017-Nov-14 23:00N 29°44' W 094°56'1 2.8
2017-Nov-14 22:30N 29°45' W 094°56'1 0.9
2017-Nov-14 21:40N 29°46' W 094°55'0 0.0
2017-Nov-14 20:02N 29°46' W 094°55'0 0.0
2017-Nov-14 18:28N 29°46' W 094°55'0 0.1
2017-Nov-14 17:55N 29°46' W 094°55'0 0.1
2017-Nov-14 17:21N 29°46' W 094°55'0 0.0
2017-Nov-14 16:48N 29°46' W 094°55'0 0.0
2017-Nov-14 16:18N 29°46' W 094°55'0 0.0
2017-Nov-14 15:52N 29°46' W 094°55'1 2.7
2017-Nov-14 15:28N 29°45' W 094°56'2 4.5
2017-Nov-14 15:00N 29°43' W 094°57'1 2.6
2017-Nov-14 14:30N 29°42' W 094°55'2 2.8
2017-Nov-14 13:55N 29°40' W 094°56'2 5.4
2017-Nov-14 13:30N 29°41' W 094°59'3 6.3
2017-Nov-14 13:00N 29°43' W 095°01'5 6.8
2017-Nov-14 12:17N 29°46' W 095°06'0 0.0
2017-Nov-14 04:49N 29°46' W 095°06'0 1.0
2017-Nov-14 04:26N 29°47' W 095°06'0 0.2
2017-Nov-14 03:53N 29°47' W 095°06'0 0.1
2017-Nov-14 03:24N 29°47' W 095°06'0 0.0
2017-Nov-14 02:55N 29°47' W 095°06'1 0.4
2017-Nov-14 01:28N 29°46' W 095°06'2 4.8
2017-Nov-14 00:58N 29°44' W 095°07'3 6.5
2017-Nov-14 00:30N 29°45' W 095°11'0 0.9
2017-Nov-14 00:00N 29°46' W 095°11'1 2.2
2017-Nov-13 23:30N 29°45' W 095°10'2 4.4
2017-Nov-13 22:57N 29°44' W 095°07'2 4.3
2017-Nov-13 22:26N 29°46' W 095°06'0 0.2
2017-Nov-13 21:59N 29°46' W 095°06'1 0.1
2017-Nov-13 02:01N 29°45' W 095°06'2 3.0
2017-Nov-13 01:27N 29°47' W 095°06'1 3.0
2017-Nov-13 01:00N 29°45' W 095°06'4 7.2
2017-Nov-13 00:30N 29°44' W 095°10'3 6.8
2017-Nov-13 00:01N 29°43' W 095°13'2 4.3
2017-Nov-12 23:30N 29°44' W 095°16'0 0.0
2017-Nov-12 23:00N 29°44' W 095°16'0 0.0
2017-Nov-12 22:30N 29°44' W 095°16'0 0.0
2017-Nov-12 22:00N 29°44' W 095°16'0 0.0
2017-Nov-12 21:30N 29°44' W 095°16'0 0.0
2017-Nov-12 21:01N 29°44' W 095°16'0 0.0
2017-Nov-12 20:30N 29°44' W 095°16'0 0.0
2017-Nov-12 20:00N 29°44' W 095°16'0 0.0
2017-Nov-12 19:30N 29°44' W 095°16'0 0.0
2017-Nov-12 19:01N 29°44' W 095°16'0 0.0
2017-Nov-12 18:31N 29°44' W 095°16'1 2.9
2017-Nov-12 18:00N 29°43' W 095°14'3 6.8
2017-Nov-12 17:30N 29°45' W 095°11'4 6.9
2017-Nov-12 16:59N 29°45' W 095°06'2 3.1
2017-Nov-12 16:26N 29°46' W 095°06'0 0.1
2017-Nov-12 16:00N 29°46' W 095°06'1 0.1
2017-Nov-12 03:45N 29°47' W 095°06'1 1.0
2017-Nov-12 03:07N 29°46' W 095°06'0 0.5
2017-Nov-12 02:47N 29°46' W 095°06'0 0.4
2017-Nov-12 02:29N 29°46' W 095°06'2 3.2
2017-Nov-12 02:01N 29°46' W 095°04'2 4.9
2017-Nov-12 01:30N 29°44' W 095°02'2 3.7
2017-Nov-12 01:00N 29°42' W 095°01'2 4.8
2017-Nov-12 00:31N 29°41' W 094°59'1 2.8
2017-Nov-12 00:00N 29°41' W 094°57'1 2.5
2017-Nov-11 23:30N 29°41' W 094°56'1 2.7
2017-Nov-11 23:00N 29°42' W 094°55'1 1.2
2017-Nov-11 22:31N 29°42' W 094°56'1 1.9
2017-Nov-11 21:55N 29°43' W 094°57'1 2.8
2017-Nov-11 21:31N 29°44' W 094°56'1 2.8
2017-Nov-11 21:00N 29°45' W 094°56'0 0.1
2017-Nov-11 12:00N 29°45' W 094°56'2 4.2
2017-Nov-11 11:29N 29°43' W 094°56'1 2.9
2017-Nov-11 10:59N 29°41' W 094°55'2 4.6
2017-Nov-11 10:31N 29°41' W 094°58'3 6.8
2017-Nov-11 10:01N 29°43' W 095°01'4 7.6
2017-Nov-11 09:30N 29°45' W 095°04'2 3.9
2017-Nov-11 09:00N 29°47' W 095°06'1 0.1
2017-Nov-10 20:37N 29°46' W 095°06'1 4.4
2017-Nov-10 20:30N 29°46' W 095°05'3 5.0
2017-Nov-10 19:55N 29°44' W 095°08'3 8.0
2017-Nov-10 19:30N 29°45' W 095°12'4 0.6
2017-Nov-10 12:41N 29°43' W 095°16'0 0.0
2017-Nov-10 12:29N 29°43' W 095°16'0 0.0
2017-Nov-10 12:00N 29°43' W 095°16'0 0.0
2017-Nov-10 11:30N 29°43' W 095°16'0 0.0
2017-Nov-10 10:58N 29°43' W 095°16'0 0.0
2017-Nov-10 10:30N 29°43' W 095°16'0 0.0
2017-Nov-10 10:00N 29°43' W 095°16'0 0.0
2017-Nov-10 09:30N 29°43' W 095°16'0 0.0
2017-Nov-10 09:00N 29°43' W 095°16'0 0.0
2017-Nov-10 08:30N 29°43' W 095°16'0 0.0
2017-Nov-10 08:00N 29°43' W 095°16'0 0.0
2017-Nov-10 07:30N 29°43' W 095°16'0 0.0
2017-Nov-10 07:00N 29°43' W 095°16'1 1.3
2017-Nov-10 06:30N 29°43' W 095°15'3 6.3
2017-Nov-10 06:00N 29°45' W 095°12'4 7.1
2017-Nov-10 05:30N 29°44' W 095°08'2 4.3
2017-Nov-10 04:57N 29°46' W 095°06'1 0.2
2017-Nov-10 01:31N 29°47' W 095°06'0 0.1
2017-Nov-10 01:21N 29°47' W 095°06'0 0.2
2017-Nov-10 00:31N 29°47' W 095°06'1 2.4
2017-Nov-10 00:16N 29°46' W 095°06'1 0.8
2017-Nov-09 23:28N 29°46' W 095°05'3 6.8
2017-Nov-09 23:01N 29°44' W 095°08'4 6.7
2017-Nov-09 22:22N 29°43' W 095°13'2 6.8
2017-Nov-09 22:00N 29°43' W 095°16'0 0.0
2017-Nov-09 21:30N 29°43' W 095°16'0 0.0
2017-Nov-09 21:00N 29°43' W 095°16'0 0.0
2017-Nov-09 20:30N 29°43' W 095°16'0 0.0
2017-Nov-09 20:00N 29°43' W 095°16'0 0.0
2017-Nov-09 19:31N 29°43' W 095°16'0 0.0
2017-Nov-09 18:51N 29°43' W 095°16'0 0.0
2017-Nov-09 17:35N 29°43' W 095°16'0 0.1
2017-Nov-09 17:31N 29°43' W 095°16'0 0.0
2017-Nov-09 16:59N 29°43' W 095°16'0 0.0
2017-Nov-09 16:30N 29°43' W 095°16'0 0.0
2017-Nov-09 15:59N 29°43' W 095°16'0 0.0
2017-Nov-09 15:30N 29°43' W 095°16'0 0.0
2017-Nov-09 15:00N 29°43' W 095°16'0 0.0
2017-Nov-09 14:27N 29°43' W 095°16'0 0.0
2017-Nov-09 13:57N 29°43' W 095°16'0 0.0
2017-Nov-09 13:30N 29°43' W 095°16'0 0.0
2017-Nov-09 13:01N 29°43' W 095°16'0 0.0
2017-Nov-09 12:30N 29°43' W 095°16'0 0.0
2017-Nov-09 12:00N 29°43' W 095°16'0 0.1
2017-Nov-09 11:30N 29°44' W 095°16'0 0.1
2017-Nov-09 11:00N 29°43' W 095°16'0 0.1
2017-Nov-09 10:29N 29°44' W 095°16'3 6.1
2017-Nov-09 10:00N 29°44' W 095°13'3 6.2
2017-Nov-09 09:30N 29°44' W 095°09'3 6.7
2017-Nov-09 09:00N 29°46' W 095°05'1 1.4
2017-Nov-09 08:29N 29°46' W 095°06'0 0.0
2017-Nov-09 07:59N 29°46' W 095°06'1 0.1
2017-Nov-09 01:38N 29°46' W 095°05'1 6.4
2017-Nov-09 01:30N 29°46' W 095°04'3 6.6
2017-Nov-09 01:01N 29°44' W 095°02'3 6.1
2017-Nov-09 00:31N 29°41' W 094°59'2 3.6
2017-Nov-09 00:01N 29°41' W 094°57'2 3.2
2017-Nov-08 23:30N 29°41' W 094°55'1 2.0
2017-Nov-08 22:58N 29°42' W 094°56'1 2.5
2017-Nov-08 22:26N 29°43' W 094°57'2 4.2
2017-Nov-08 22:00N 29°45' W 094°56'1 1.3
2017-Nov-08 21:15N 29°45' W 094°55'1 4.2
2017-Nov-08 21:01N 29°45' W 094°56'2 3.4
2017-Nov-08 20:30N 29°43' W 094°56'1 2.6
2017-Nov-08 20:00N 29°42' W 094°55'2 3.8
2017-Nov-08 19:31N 29°41' W 094°57'2 4.6
2017-Nov-08 19:01N 29°41' W 094°59'4 8.1
2017-Nov-08 18:28N 29°44' W 095°03'3 6.9
2017-Nov-08 18:01N 29°46' W 095°06'  

Dump ship's entire track history